createdAt,value
2019-06-07T00:00:39.717Z,19.52
2019-06-07T00:01:08.455Z,20.43
2019-06-07T00:01:40.895Z,20.95
2019-06-07T00:02:16.377Z,23.70
2019-06-07T00:02:48.330Z,18.15
2019-06-07T00:03:27.426Z,20.75
2019-06-07T00:03:55.920Z,18.92
2019-06-07T00:04:29.177Z,17.40
2019-06-07T00:05:02.200Z,19.27
2019-06-07T00:05:34.882Z,18.80
2019-06-07T00:06:24.524Z,17.87
2019-06-07T00:06:54.676Z,21.33
2019-06-07T00:07:27.809Z,20.85
2019-06-07T00:08:07.661Z,19.27
2019-06-07T00:08:34.910Z,18.25
2019-06-07T00:09:09.655Z,19.90
2019-06-07T00:09:42.385Z,20.85
2019-06-07T00:10:34.962Z,18.80
2019-06-07T00:10:50.335Z,20.62
2019-06-07T00:11:22.981Z,21.62
2019-06-07T00:11:55.632Z,18.12
2019-06-07T00:12:28.231Z,24.12
2019-06-07T00:13:01.235Z,23.92
2019-06-07T00:13:33.851Z,18.70
2019-06-07T00:14:08.460Z,20.15
2019-06-07T00:14:41.060Z,17.12
2019-06-07T00:15:19.985Z,22.70
2019-06-07T00:15:48.315Z,21.57
2019-06-07T00:16:23.210Z,20.08
2019-06-07T00:16:55.789Z,19.48
2019-06-07T00:17:28.443Z,22.55
2019-06-07T00:18:01.099Z,18.30
2019-06-07T00:18:34.033Z,19.87
2019-06-07T00:19:07.240Z,23.73
2019-06-07T00:19:40.022Z,22.15
2019-06-07T00:20:16.660Z,19.17
2019-06-07T00:20:48.149Z,26.52
2019-06-07T00:22:12.249Z,20.40
2019-06-07T00:22:33.481Z,23.95
2019-06-07T00:23:04.921Z,23.30
2019-06-07T00:23:37.560Z,23.10
2019-06-07T00:24:14.018Z,18.50
2019-06-07T00:24:45.068Z,19.48
2019-06-07T00:25:23.775Z,19.45
2019-06-07T00:25:52.105Z,23.40
2019-06-07T00:26:24.731Z,25.30
2019-06-07T00:26:59.094Z,21.15
2019-06-07T00:27:32.223Z,21.75
2019-06-07T00:28:05.166Z,18.98
2019-06-07T00:28:38.242Z,18.50
2019-06-07T00:29:13.879Z,24.80
2019-06-07T00:29:45.277Z,18.82
2019-06-07T00:30:37.626Z,20.43
2019-06-07T00:30:53.343Z,23.00
2019-06-07T00:31:25.954Z,23.18
2019-06-07T00:31:58.574Z,22.45
2019-06-07T00:32:31.209Z,18.30
2019-06-07T00:33:03.921Z,20.65
2019-06-07T00:33:36.552Z,26.48
2019-06-07T00:34:10.722Z,23.60
2019-06-07T00:34:44.059Z,21.62
2019-06-07T00:35:19.400Z,18.82
2019-06-07T00:35:51.394Z,27.82
2019-06-07T00:36:24.009Z,29.48
2019-06-07T00:36:56.828Z,21.40
2019-06-07T00:37:29.433Z,20.82
2019-06-07T00:38:02.990Z,37.93
2019-06-07T00:38:35.972Z,27.52
2019-06-07T00:39:10.564Z,21.68
2019-06-07T00:39:43.224Z,20.17
2019-06-07T00:40:21.063Z,21.85
2019-06-07T00:40:50.471Z,20.80
2019-06-07T00:41:23.077Z,23.95
2019-06-07T00:41:56.138Z,22.02
2019-06-07T00:42:29.067Z,23.47
2019-06-07T00:43:01.691Z,23.18
2019-06-07T00:43:34.315Z,23.20
2019-06-07T00:44:06.959Z,22.05
2019-06-07T00:44:39.750Z,22.40
2019-06-07T00:45:14.698Z,23.98
2019-06-07T00:45:47.555Z,26.33
2019-06-07T00:46:21.631Z,19.57
2019-06-07T00:46:54.598Z,23.05
2019-06-07T00:47:27.829Z,19.98
2019-06-07T00:48:00.415Z,24.65
2019-06-07T00:48:33.296Z,26.42
2019-06-07T00:49:06.364Z,23.18
2019-06-07T00:49:41.384Z,19.62
2019-06-07T00:50:16.193Z,23.12
2019-06-07T00:50:48.690Z,23.77
2019-06-07T00:51:23.914Z,25.40
2019-06-07T00:51:56.451Z,23.32
2019-06-07T00:53:28.882Z,25.10
2019-06-07T00:53:37.967Z,21.00
2019-06-07T00:54:12.294Z,22.58
2019-06-07T00:54:45.588Z,21.65
2019-06-07T00:55:20.629Z,21.90
2019-06-07T00:55:52.749Z,20.02
2019-06-07T00:56:25.380Z,19.32
2019-06-07T00:56:58.005Z,22.13
2019-06-07T00:57:30.623Z,19.00
2019-06-07T00:58:03.680Z,27.00
2019-06-07T00:58:36.305Z,25.70
2019-06-07T00:59:11.586Z,21.05
2019-06-07T00:59:44.406Z,16.12
2019-06-07T01:00:22.297Z,18.62
2019-06-07T01:00:53.968Z,24.05
2019-06-07T01:01:26.595Z,19.87
2019-06-07T01:01:59.611Z,18.87
2019-06-07T01:02:32.214Z,21.37
2019-06-07T01:03:04.836Z,24.57
2019-06-07T01:03:37.579Z,19.62
2019-06-07T01:04:10.535Z,23.40
2019-06-07T01:04:43.505Z,22.58
2019-06-07T01:05:20.304Z,19.82
2019-06-07T01:05:50.685Z,21.55
2019-06-07T01:06:24.909Z,20.95
2019-06-07T01:06:57.657Z,17.07
2019-06-07T01:07:30.304Z,20.72
2019-06-07T01:08:04.419Z,20.92
2019-06-07T01:08:37.237Z,20.75
2019-06-07T01:09:09.862Z,20.48
2019-06-07T01:09:42.655Z,16.93
2019-06-07T01:10:17.365Z,18.30
2019-06-07T01:10:53.958Z,18.92
2019-06-07T01:11:26.153Z,18.70
2019-06-07T01:11:58.954Z,16.67
2019-06-07T01:12:32.020Z,23.40
2019-06-07T01:13:04.963Z,16.40
2019-06-07T01:13:37.628Z,22.35
2019-06-07T01:14:10.614Z,14.47
2019-06-07T01:14:43.627Z,16.32
2019-06-07T01:15:26.874Z,23.75
2019-06-07T01:15:56.512Z,17.77
2019-06-07T01:16:53.098Z,14.60
2019-06-07T01:17:29.116Z,20.55
2019-06-07T01:18:33.118Z,21.55
2019-06-07T01:18:37.224Z,17.60
2019-06-07T01:18:57.862Z,18.82
2019-06-07T01:19:30.582Z,14.38
2019-06-07T01:20:04.047Z,16.70
2019-06-07T01:20:36.672Z,15.80
2019-06-07T01:21:09.630Z,19.23
2019-06-07T01:21:42.662Z,16.02
2019-06-07T01:22:16.471Z,15.28
2019-06-07T01:22:49.746Z,24.07
2019-06-07T01:24:03.182Z,22.48
2019-06-07T01:24:11.509Z,17.23
2019-06-07T01:24:31.241Z,24.57
2019-06-07T01:25:04.586Z,19.32
2019-06-07T01:25:37.227Z,17.15
2019-06-07T01:26:09.869Z,16.77
2019-06-07T01:26:42.493Z,23.47
2019-06-07T01:27:16.650Z,18.10
2019-06-07T01:27:49.773Z,16.85
2019-06-07T01:28:26.259Z,12.90
2019-06-07T01:28:56.807Z,15.70
2019-06-07T01:29:31.070Z,17.00
2019-06-07T01:30:05.884Z,13.72
2019-06-07T01:30:38.906Z,15.63
2019-06-07T01:31:11.844Z,12.23
2019-06-07T01:31:44.643Z,15.63
2019-06-07T01:32:19.293Z,20.27
2019-06-07T01:32:52.499Z,19.10
2019-06-07T01:33:38.141Z,16.52
2019-06-07T01:33:59.532Z,20.97
2019-06-07T01:34:32.164Z,14.00
2019-06-07T01:35:05.615Z,15.05
2019-06-07T01:35:38.231Z,14.23
2019-06-07T01:36:10.864Z,20.10
2019-06-07T01:36:43.558Z,17.50
2019-06-07T01:37:16.878Z,21.05
2019-06-07T01:37:50.197Z,21.75
2019-06-07T01:38:24.986Z,20.70
2019-06-07T01:38:57.684Z,14.47
2019-06-07T01:39:31.843Z,16.40
2019-06-07T01:40:05.087Z,17.32
2019-06-07T01:40:37.693Z,19.67
2019-06-07T01:41:10.324Z,14.33
2019-06-07T01:41:42.942Z,16.82
2019-06-07T01:42:18.097Z,15.25
2019-06-07T01:42:50.001Z,24.75
2019-06-07T01:43:28.423Z,16.37
2019-06-07T01:43:57.710Z,16.35
2019-06-07T01:44:31.211Z,17.82
2019-06-07T01:45:05.459Z,14.83
2019-06-07T01:45:38.448Z,15.90
2019-06-07T01:46:11.091Z,15.60
2019-06-07T01:46:44.097Z,16.90
2019-06-07T01:47:17.841Z,16.87
2019-06-07T01:47:51.109Z,18.40
2019-06-07T01:48:26.128Z,16.55
2019-06-07T01:48:58.083Z,19.40
2019-06-07T01:49:30.721Z,14.20
2019-06-07T01:50:04.182Z,20.70
2019-06-07T01:50:36.810Z,18.95
2019-06-07T01:51:09.429Z,24.70
2019-06-07T01:51:42.071Z,13.03
2019-06-07T01:52:14.678Z,13.75
2019-06-07T01:52:47.294Z,13.40
2019-06-07T01:53:23.727Z,16.40
2019-06-07T01:54:41.054Z,19.35
2019-06-07T01:55:06.270Z,18.95
2019-06-07T01:55:38.910Z,17.17
2019-06-07T01:56:11.525Z,17.50
2019-06-07T01:56:44.459Z,15.48
2019-06-07T01:57:34.226Z,16.50
2019-06-07T01:57:52.062Z,13.83
2019-06-07T01:58:28.809Z,13.15
2019-06-07T01:58:59.916Z,14.10
2019-06-07T01:59:32.588Z,16.20
2019-06-07T02:00:06.273Z,18.32
2019-06-07T02:00:39.263Z,14.35
2019-06-07T02:01:12.301Z,19.37
2019-06-07T02:01:44.965Z,15.38
2019-06-07T02:02:17.823Z,14.15
2019-06-07T02:02:50.623Z,18.10
2019-06-07T02:03:28.089Z,17.65
2019-06-07T02:03:57.970Z,14.65
2019-06-07T02:04:33.171Z,20.37
2019-06-07T02:05:05.390Z,21.23
2019-06-07T02:05:39.344Z,16.65
2019-06-07T02:06:11.995Z,11.70
2019-06-07T02:06:44.634Z,12.13
2019-06-07T02:07:20.368Z,13.72
2019-06-07T02:07:52.551Z,14.58
2019-06-07T02:08:27.357Z,17.15
2019-06-07T02:08:59.595Z,17.80
2019-06-07T02:09:32.389Z,18.05
2019-06-07T02:10:05.569Z,14.63
2019-06-07T02:10:38.187Z,15.10
2019-06-07T02:11:10.791Z,15.38
2019-06-07T02:11:43.455Z,13.93
2019-06-07T02:12:25.630Z,12.90
2019-06-07T02:12:50.549Z,18.45
2019-06-07T02:13:23.904Z,12.25
2019-06-07T02:13:58.194Z,13.10
2019-06-07T02:14:33.544Z,13.13
2019-06-07T02:15:07.182Z,15.10
2019-06-07T02:15:39.811Z,15.43
2019-06-07T02:16:12.434Z,10.82
2019-06-07T02:16:45.095Z,11.88
2019-06-07T02:17:17.751Z,11.78
2019-06-07T02:17:50.325Z,15.63
2019-06-07T02:18:25.106Z,22.15
2019-06-07T02:19:01.974Z,15.65
2019-06-07T02:19:33.396Z,11.48
2019-06-07T02:20:07.632Z,11.73
2019-06-07T02:20:40.312Z,10.72
2019-06-07T02:21:13.201Z,9.70
2019-06-07T02:21:46.235Z,9.03
2019-06-07T02:22:21.319Z,7.42
2019-06-07T02:22:53.318Z,8.93
2019-06-07T02:23:28.260Z,12.73
2019-06-07T02:24:00.542Z,7.00
2019-06-07T02:24:35.915Z,8.78
2019-06-07T02:25:49.946Z,8.15
2019-06-07T02:26:17.318Z,10.13
2019-06-07T02:26:49.951Z,7.37
2019-06-07T02:27:24.649Z,8.18
2019-06-07T02:28:26.074Z,10.70
2019-06-07T02:28:44.744Z,9.53
2019-06-07T02:29:06.264Z,11.90
2019-06-07T02:29:38.872Z,8.45
2019-06-07T02:30:58.886Z,9.73
2019-06-07T02:31:21.758Z,8.78
2019-06-07T02:31:55.650Z,9.35
2019-06-07T02:32:31.988Z,11.20
2019-06-07T02:33:03.473Z,14.58
2019-06-07T02:33:40.288Z,11.57
2019-06-07T02:34:10.880Z,10.13
2019-06-07T02:34:43.482Z,12.43
2019-06-07T02:35:16.652Z,8.85
2019-06-07T02:35:49.267Z,8.58
2019-06-07T02:36:25.456Z,10.15
2019-06-07T02:36:56.727Z,10.63
2019-06-07T02:37:32.329Z,7.70
2019-06-07T02:38:03.795Z,9.80
2019-06-07T02:38:37.839Z,7.62
2019-06-07T02:39:10.764Z,7.78
2019-06-07T02:39:43.909Z,8.90
2019-06-07T02:40:18.545Z,10.95
2019-06-07T02:40:51.499Z,8.53
2019-06-07T02:41:27.395Z,13.58
2019-06-07T02:41:58.867Z,7.72
2019-06-07T02:42:36.638Z,10.82
2019-06-07T02:43:06.221Z,12.10
2019-06-07T02:43:38.867Z,7.62
2019-06-07T02:44:12.024Z,8.38
2019-06-07T02:44:44.985Z,7.83
2019-06-07T02:45:17.888Z,6.35
2019-06-07T02:45:50.505Z,6.28
2019-06-07T02:46:31.916Z,9.13
2019-06-07T02:46:58.255Z,11.65
2019-06-07T02:47:33.748Z,10.65
2019-06-07T02:48:05.685Z,10.68
2019-06-07T02:48:39.965Z,6.75
2019-06-07T02:49:12.741Z,10.60
2019-06-07T02:49:45.404Z,15.38
2019-06-07T02:50:18.259Z,13.30
2019-06-07T02:50:51.923Z,8.85
2019-06-07T02:51:32.218Z,9.38
2019-06-07T02:51:59.352Z,8.35
2019-06-07T02:52:38.717Z,7.53
2019-06-07T02:53:06.427Z,7.40
2019-06-07T02:53:40.419Z,7.40
2019-06-07T02:54:14.006Z,8.38
2019-06-07T02:54:46.656Z,5.78
2019-06-07T02:55:19.323Z,10.70
2019-06-07T02:56:34.873Z,7.40
2019-06-07T02:56:41.966Z,12.00
2019-06-07T02:57:01.691Z,8.05
2019-06-07T02:57:36.832Z,8.48
2019-06-07T02:58:08.807Z,6.22
2019-06-07T02:58:42.271Z,7.03
2019-06-07T02:59:15.384Z,19.00
2019-06-07T03:00:06.802Z,7.50
2019-06-07T03:01:06.619Z,9.55
2019-06-07T03:01:32.451Z,5.70
2019-06-07T03:02:04.118Z,10.78
2019-06-07T03:02:41.217Z,12.20
2019-06-07T03:03:12.848Z,9.90
2019-06-07T03:03:46.033Z,9.93
2019-06-07T03:04:19.441Z,8.53
2019-06-07T03:04:52.075Z,5.47
2019-06-07T03:05:25.110Z,7.22
2019-06-07T03:05:58.569Z,9.10
2019-06-07T03:06:36.947Z,7.12
2019-06-07T03:07:07.254Z,6.85
2019-06-07T03:07:45.094Z,6.62
2019-06-07T03:08:16.920Z,6.53
2019-06-07T03:08:50.141Z,6.17
2019-06-07T03:09:22.984Z,7.47
2019-06-07T03:09:56.200Z,9.15
2019-06-07T03:10:31.403Z,6.53
2019-06-07T03:11:04.145Z,10.48
2019-06-07T03:11:40.473Z,9.63
2019-06-07T03:12:14.715Z,10.50
2019-06-07T03:12:49.917Z,5.60
2019-06-07T03:13:22.554Z,8.23
2019-06-07T03:13:56.329Z,8.15
2019-06-07T03:14:35.178Z,8.30
2019-06-07T03:15:08.421Z,8.58
2019-06-07T03:15:49.995Z,8.75
2019-06-07T03:16:24.509Z,8.55
2019-06-07T03:17:08.085Z,8.93
2019-06-07T03:17:58.876Z,9.73
2019-06-07T03:19:03.220Z,6.70
2019-06-07T03:19:40.183Z,8.40
2019-06-07T03:20:13.472Z,12.53
2019-06-07T03:21:04.726Z,6.35
2019-06-07T03:21:27.715Z,10.13
2019-06-07T03:22:02.963Z,7.95
2019-06-07T03:22:41.401Z,5.83
2019-06-07T03:23:14.723Z,8.20
2019-06-07T03:23:47.439Z,8.28
2019-06-07T03:24:23.492Z,12.60
2019-06-07T03:24:58.123Z,6.67
2019-06-07T03:25:37.269Z,7.05
2019-06-07T03:26:10.855Z,6.05
2019-06-07T03:27:31.807Z,11.10
2019-06-07T03:27:41.603Z,10.03
2019-06-07T03:27:54.221Z,6.70
2019-06-07T03:28:30.128Z,5.97
2019-06-07T03:29:03.130Z,6.95
2019-06-07T03:29:36.595Z,7.22
2019-06-07T03:30:35.994Z,9.25
2019-06-07T03:31:01.012Z,9.90
2019-06-07T03:31:19.078Z,7.92
2019-06-07T03:31:51.690Z,7.50
2019-06-07T03:32:24.347Z,13.55
2019-06-07T03:32:57.381Z,10.58
2019-06-07T03:33:32.432Z,6.25
2019-06-07T03:34:04.886Z,7.53
2019-06-07T03:34:41.305Z,4.58
2019-06-07T03:35:12.610Z,4.67
2019-06-07T03:35:45.265Z,5.42
2019-06-07T03:36:23.841Z,4.35
2019-06-07T03:36:52.771Z,6.87
2019-06-07T03:37:28.047Z,9.75
2019-06-07T03:38:00.224Z,10.18
2019-06-07T03:38:34.857Z,9.98
2019-06-07T03:39:07.686Z,8.48
2019-06-07T03:39:41.142Z,9.43
2019-06-07T03:40:13.934Z,7.05
2019-06-07T03:40:46.874Z,8.58
2019-06-07T03:41:19.837Z,6.60
2019-06-07T03:42:05.950Z,9.23
2019-06-07T03:42:27.177Z,7.05
2019-06-07T03:43:00.099Z,6.25
2019-06-07T03:43:36.291Z,6.35
2019-06-07T03:44:07.227Z,7.95
2019-06-07T03:44:41.491Z,9.63
2019-06-07T03:45:14.683Z,5.72
2019-06-07T03:45:48.120Z,6.87
2019-06-07T03:46:20.927Z,17.90
2019-06-07T03:46:53.982Z,5.28
2019-06-07T03:47:30.575Z,8.38
2019-06-07T03:48:01.049Z,5.70
2019-06-07T03:48:37.851Z,6.85
2019-06-07T03:49:08.169Z,5.15
2019-06-07T03:49:42.556Z,6.42
2019-06-07T03:50:15.209Z,9.48
2019-06-07T03:50:47.848Z,11.45
2019-06-07T03:51:25.164Z,5.50
2019-06-07T03:51:55.683Z,6.25
2019-06-07T03:52:30.018Z,7.55
2019-06-07T03:53:02.933Z,9.93
2019-06-07T03:53:37.204Z,7.83
2019-06-07T03:54:10.402Z,5.78
2019-06-07T03:54:43.358Z,14.40
2019-06-07T03:55:16.320Z,5.75
2019-06-07T03:55:48.982Z,10.95
2019-06-07T03:56:21.990Z,15.35
2019-06-07T03:56:54.656Z,5.67
2019-06-07T03:57:29.114Z,6.45
2019-06-07T03:58:48.518Z,8.50
2019-06-07T03:59:11.232Z,6.72
2019-06-07T03:59:44.202Z,5.53
2019-06-07T04:00:16.915Z,5.95
2019-06-07T04:00:49.871Z,8.00
2019-06-07T04:01:22.528Z,7.25
2019-06-07T04:01:55.146Z,12.37
2019-06-07T04:02:27.880Z,10.38
2019-06-07T04:03:01.002Z,5.95
2019-06-07T04:03:43.610Z,5.40
2019-06-07T04:04:08.079Z,5.22
2019-06-07T04:04:40.998Z,9.75
2019-06-07T04:05:13.736Z,8.55
2019-06-07T04:05:46.432Z,11.57
2019-06-07T04:06:19.568Z,7.90
2019-06-07T04:06:52.208Z,7.37
2019-06-07T04:07:44.899Z,6.95
2019-06-07T04:08:17.927Z,7.72
2019-06-07T04:08:55.547Z,18.48
2019-06-07T04:09:33.765Z,10.70
2019-06-07T04:10:14.547Z,4.37
2019-06-07T04:10:59.061Z,6.17
2019-06-07T04:11:22.094Z,6.47
2019-06-07T04:11:55.648Z,8.30
2019-06-07T04:12:31.863Z,5.90
2019-06-07T04:13:04.261Z,8.43
2019-06-07T04:13:42.469Z,6.12
2019-06-07T04:14:13.240Z,7.80
2019-06-07T04:14:46.266Z,8.43
2019-06-07T04:15:18.900Z,4.55
2019-06-07T04:15:52.297Z,11.08
2019-06-07T04:16:25.392Z,7.35
2019-06-07T04:16:58.008Z,7.62
2019-06-07T04:17:39.564Z,5.28
2019-06-07T04:18:11.524Z,5.47
2019-06-07T04:18:44.552Z,6.70
2019-06-07T04:19:17.185Z,6.05
2019-06-07T04:19:49.810Z,8.48
2019-06-07T04:20:22.803Z,7.12
2019-06-07T04:20:55.439Z,5.80
2019-06-07T04:21:29.752Z,7.33
2019-06-07T04:22:02.975Z,3.40
2019-06-07T04:22:39.514Z,4.28
2019-06-07T04:23:27.413Z,7.83
2019-06-07T04:23:45.669Z,6.60
2019-06-07T04:24:18.925Z,3.42
2019-06-07T04:24:51.548Z,8.38
2019-06-07T04:25:24.536Z,2.95
2019-06-07T04:25:57.498Z,7.97
2019-06-07T04:26:31.438Z,6.05
2019-06-07T04:27:05.210Z,4.60
2019-06-07T04:27:40.722Z,5.33
2019-06-07T04:28:12.598Z,6.90
2019-06-07T04:29:56.805Z,6.80
2019-06-07T04:30:07.219Z,9.25
2019-06-07T04:30:41.831Z,9.05
2019-06-07T04:31:14.715Z,6.12
2019-06-07T04:31:47.671Z,4.33
2019-06-07T04:32:20.307Z,5.70
2019-06-07T04:32:52.949Z,9.60
2019-06-07T04:33:25.651Z,8.80
2019-06-07T04:33:58.277Z,5.92
2019-06-07T04:34:34.934Z,5.62
2019-06-07T04:35:05.631Z,3.58
2019-06-07T04:35:40.062Z,8.78
2019-06-07T04:36:13.831Z,7.12
2019-06-07T04:36:58.703Z,10.03
2019-06-07T04:37:22.389Z,6.67
2019-06-07T04:37:55.417Z,6.92
2019-06-07T04:38:32.732Z,6.75
2019-06-07T04:39:06.710Z,7.60
2019-06-07T04:39:44.654Z,3.92
2019-06-07T04:40:16.028Z,7.50
2019-06-07T04:40:51.319Z,7.45
2019-06-07T04:41:27.061Z,9.15
2019-06-07T04:42:01.573Z,7.25
2019-06-07T04:42:39.187Z,3.77
2019-06-07T04:43:10.975Z,6.00
2019-06-07T04:43:44.417Z,6.08
2019-06-07T04:44:18.237Z,5.33
2019-06-07T04:44:51.771Z,5.42
2019-06-07T04:45:36.231Z,4.30
2019-06-07T04:46:01.589Z,6.50
2019-06-07T04:46:40.769Z,10.80
2019-06-07T04:47:14.114Z,5.22
2019-06-07T04:47:48.873Z,13.03
2019-06-07T04:48:22.272Z,6.80
2019-06-07T04:48:55.886Z,9.68
2019-06-07T04:49:29.944Z,7.42
2019-06-07T04:50:03.670Z,6.22
2019-06-07T04:50:39.997Z,3.72
2019-06-07T04:51:13.581Z,7.83
2019-06-07T04:51:47.628Z,4.20
2019-06-07T04:52:20.891Z,7.72
2019-06-07T04:52:53.551Z,7.53
2019-06-07T04:53:27.019Z,6.22
2019-06-07T04:54:00.030Z,8.23
2019-06-07T04:54:33.453Z,9.93
2019-06-07T04:55:07.079Z,7.08
2019-06-07T04:55:41.664Z,6.12
2019-06-07T04:56:14.164Z,9.10
2019-06-07T04:56:46.807Z,13.80
2019-06-07T04:57:19.456Z,5.08
2019-06-07T04:57:52.106Z,7.08
2019-06-07T04:58:24.759Z,4.95
2019-06-07T04:58:57.398Z,7.05
2019-06-07T05:00:04.287Z,10.25
2019-06-07T05:00:32.760Z,6.25
2019-06-07T05:00:53.139Z,6.75
2019-06-07T05:01:26.773Z,5.60
2019-06-07T05:01:48.538Z,9.10
2019-06-07T05:02:21.166Z,10.18
2019-06-07T05:02:53.876Z,6.40
2019-06-07T05:03:26.865Z,7.40
2019-06-07T05:04:00.201Z,5.12
2019-06-07T05:04:33.206Z,9.70
2019-06-07T05:05:07.239Z,7.78
2019-06-07T05:05:43.550Z,7.15
2019-06-07T05:06:14.602Z,4.75
2019-06-07T05:06:47.622Z,9.28
2019-06-07T05:07:20.262Z,8.83
2019-06-07T05:07:52.995Z,6.08
2019-06-07T05:08:28.464Z,17.32
2019-06-07T05:09:00.772Z,7.30
2019-06-07T05:09:37.529Z,4.58
2019-06-07T05:10:08.612Z,5.20
2019-06-07T05:10:43.819Z,10.45
2019-06-07T05:11:15.658Z,5.15
2019-06-07T05:11:48.307Z,9.73
2019-06-07T05:12:21.245Z,9.63
2019-06-07T05:12:54.195Z,4.50
2019-06-07T05:13:26.826Z,6.15
2019-06-07T05:13:59.486Z,6.75
2019-06-07T05:14:33.193Z,6.83
2019-06-07T05:15:06.725Z,6.58
2019-06-07T05:15:42.084Z,6.17
2019-06-07T05:16:13.756Z,6.80
2019-06-07T05:16:46.391Z,12.00
2019-06-07T05:17:23.267Z,6.85
2019-06-07T05:17:55.891Z,6.37
2019-06-07T05:18:29.703Z,3.92
2019-06-07T05:19:02.655Z,8.43
2019-06-07T05:19:38.560Z,10.35
2019-06-07T05:20:10.482Z,7.53
2019-06-07T05:20:44.479Z,5.60
2019-06-07T05:21:17.462Z,6.35
2019-06-07T05:22:03.761Z,4.55
2019-06-07T05:22:24.923Z,7.42
2019-06-07T05:22:57.542Z,6.92
2019-06-07T05:24:03.551Z,10.80
2019-06-07T05:24:09.672Z,4.62
2019-06-07T05:24:41.536Z,6.05
2019-06-07T05:25:13.950Z,4.75
2019-06-07T05:25:46.590Z,6.55
2019-06-07T05:26:19.535Z,9.63
2019-06-07T05:26:52.129Z,7.67
2019-06-07T05:27:25.053Z,6.05
2019-06-07T05:27:57.686Z,4.00
2019-06-07T05:28:30.329Z,9.73
2019-06-07T05:29:02.939Z,9.05
2019-06-07T05:29:38.391Z,6.03
2019-06-07T05:30:36.509Z,5.55
2019-06-07T05:31:21.470Z,8.73
2019-06-07T05:31:54.299Z,5.45
2019-06-07T05:32:27.350Z,5.47
2019-06-07T05:32:59.973Z,4.92
2019-06-07T05:33:35.517Z,7.05
2019-06-07T05:34:07.124Z,6.28
2019-06-07T05:34:43.282Z,17.23
2019-06-07T05:35:15.092Z,12.68
2019-06-07T05:35:47.714Z,11.40
2019-06-07T05:36:20.357Z,6.60
2019-06-07T05:37:10.494Z,5.97
2019-06-07T05:37:27.412Z,3.85
2019-06-07T05:38:00.126Z,4.70
2019-06-07T05:38:33.473Z,3.65
2019-06-07T05:39:07.362Z,10.13
2019-06-07T05:39:43.375Z,4.37
2019-06-07T05:40:21.347Z,5.10
2019-06-07T05:40:54.070Z,5.53
2019-06-07T05:41:27.079Z,5.90
2019-06-07T05:41:59.722Z,8.95
2019-06-07T05:42:34.559Z,6.42
2019-06-07T05:43:07.082Z,8.53
2019-06-07T05:43:45.529Z,9.20
2019-06-07T05:44:15.170Z,5.45
2019-06-07T05:44:48.018Z,3.52
2019-06-07T05:45:30.250Z,7.00
2019-06-07T05:46:02.917Z,8.10
2019-06-07T05:46:38.615Z,4.72
2019-06-07T05:47:10.040Z,5.90
2019-06-07T05:47:49.674Z,8.38
2019-06-07T05:48:17.485Z,14.73
2019-06-07T05:48:50.125Z,11.18
2019-06-07T05:49:23.131Z,5.67
2019-06-07T05:49:56.147Z,6.08
2019-06-07T05:50:43.658Z,4.78
2019-06-07T05:51:03.574Z,8.63
2019-06-07T05:51:38.126Z,8.05
2019-06-07T05:52:10.665Z,3.72
2019-06-07T05:52:46.812Z,3.25
2019-06-07T05:53:18.862Z,12.13
2019-06-07T05:53:51.486Z,6.90
2019-06-07T05:54:24.417Z,5.30
2019-06-07T05:54:57.393Z,7.37
2019-06-07T05:55:30.358Z,15.83
2019-06-07T05:56:03.153Z,5.55
2019-06-07T05:56:39.046Z,6.37
2019-06-07T05:57:10.477Z,5.67
2019-06-07T05:57:48.570Z,6.78
2019-06-07T05:58:17.592Z,7.12
2019-06-07T05:58:50.618Z,7.10
2019-06-07T05:59:23.252Z,8.05
2019-06-07T05:59:55.862Z,16.12
2019-06-07T06:00:28.488Z,6.25
2019-06-07T06:01:41.373Z,7.45
2019-06-07T06:01:45.946Z,6.42
2019-06-07T06:02:22.190Z,4.47
2019-06-07T06:03:04.311Z,4.70
2019-06-07T06:03:19.575Z,7.33
2019-06-07T06:03:52.506Z,8.38
2019-06-07T06:04:25.147Z,12.40
2019-06-07T06:05:05.627Z,7.22
2019-06-07T06:05:48.322Z,12.33
2019-06-07T06:06:19.850Z,12.15
2019-06-07T06:06:53.631Z,8.15
2019-06-07T06:07:26.274Z,6.92
2019-06-07T06:07:59.210Z,7.95
2019-06-07T06:08:31.875Z,9.80
2019-06-07T06:09:13.928Z,4.37
2019-06-07T06:09:40.689Z,4.75
2019-06-07T06:10:13.367Z,6.15
2019-06-07T06:10:48.625Z,8.48
2019-06-07T06:11:20.597Z,5.75
2019-06-07T06:12:01.848Z,11.48
2019-06-07T06:12:35.329Z,6.35
2019-06-07T06:13:04.030Z,9.53
2019-06-07T06:14:02.489Z,8.90
2019-06-07T06:14:12.941Z,13.45
2019-06-07T06:14:47.035Z,8.98
2019-06-07T06:15:19.823Z,10.00
2019-06-07T06:16:01.331Z,8.58
2019-06-07T06:16:27.278Z,5.12
2019-06-07T06:16:59.914Z,5.80
2019-06-07T06:17:32.531Z,8.00
2019-06-07T06:18:05.264Z,9.93
2019-06-07T06:18:38.134Z,7.83
2019-06-07T06:19:11.231Z,6.50
2019-06-07T06:19:47.369Z,3.72
2019-06-07T06:20:18.921Z,24.23
2019-06-07T06:21:15.239Z,11.18
2019-06-07T06:21:26.407Z,5.95
2019-06-07T06:21:59.038Z,10.75
2019-06-07T06:22:31.721Z,4.90
2019-06-07T06:23:05.389Z,8.08
2019-06-07T06:23:39.566Z,11.40
2019-06-07T06:24:12.857Z,6.97
2019-06-07T06:25:16.877Z,6.42
2019-06-07T06:25:38.654Z,8.50
2019-06-07T06:25:57.386Z,8.25
2019-06-07T06:26:29.305Z,10.63
2019-06-07T06:27:19.034Z,5.17
2019-06-07T06:28:13.005Z,6.85
2019-06-07T06:28:46.738Z,16.00
2019-06-07T06:29:19.326Z,7.22
2019-06-07T06:29:52.504Z,5.55
2019-06-07T06:30:25.338Z,5.70
2019-06-07T06:30:57.987Z,4.95
2019-06-07T06:31:31.062Z,6.10
2019-06-07T06:32:40.541Z,4.42
2019-06-07T06:32:45.604Z,5.22
2019-06-07T06:33:30.797Z,17.73
2019-06-07T06:33:49.930Z,6.53
2019-06-07T06:34:22.803Z,5.65
2019-06-07T06:34:56.056Z,12.45
2019-06-07T06:35:29.255Z,12.68
2019-06-07T06:36:01.893Z,7.25
2019-06-07T06:36:34.538Z,12.43
2019-06-07T06:37:07.562Z,9.90
2019-06-07T06:37:42.540Z,8.98
2019-06-07T06:38:15.070Z,6.55
2019-06-07T06:38:49.760Z,5.78
2019-06-07T06:39:22.184Z,4.50
2019-06-07T06:39:54.849Z,4.72
2019-06-07T06:40:27.857Z,7.35
2019-06-07T06:41:15.089Z,5.03
2019-06-07T06:41:46.110Z,6.28
2019-06-07T06:42:09.635Z,10.15
2019-06-07T06:42:44.689Z,4.78
2019-06-07T06:43:17.151Z,4.30
2019-06-07T06:43:52.439Z,16.50
2019-06-07T06:44:24.190Z,7.25
2019-06-07T06:44:56.908Z,8.40
2019-06-07T06:45:29.965Z,5.05
2019-06-07T06:46:02.770Z,4.25
2019-06-07T06:46:41.145Z,6.95
2019-06-07T06:47:09.809Z,9.03
2019-06-07T06:47:43.315Z,6.05
2019-06-07T06:48:16.925Z,5.55
2019-06-07T06:48:54.946Z,4.20
2019-06-07T06:49:24.422Z,7.78
2019-06-07T06:49:57.318Z,4.80
2019-06-07T06:50:30.571Z,5.95
2019-06-07T06:51:03.278Z,14.87
2019-06-07T06:51:35.883Z,5.35
2019-06-07T06:52:08.522Z,5.42
2019-06-07T06:52:45.190Z,7.08
2019-06-07T06:53:16.583Z,15.60
2019-06-07T06:53:52.353Z,6.12
2019-06-07T06:54:40.183Z,9.90
2019-06-07T06:55:00.845Z,7.75
2019-06-07T06:55:32.957Z,4.92
2019-06-07T06:56:05.599Z,5.35
2019-06-07T06:56:39.818Z,13.55
2019-06-07T06:57:19.424Z,11.12
2019-06-07T06:57:48.358Z,8.00
2019-06-07T06:58:22.120Z,4.12
2019-06-07T06:59:38.802Z,8.55
2019-06-07T07:00:06.734Z,8.33
2019-06-07T07:00:53.439Z,3.17
2019-06-07T07:01:19.260Z,5.15
2019-06-07T07:01:52.805Z,8.13
2019-06-07T07:02:25.500Z,7.33
2019-06-07T07:03:57.240Z,4.97
2019-06-07T07:04:12.957Z,7.75
2019-06-07T07:04:43.994Z,4.92
2019-06-07T07:05:17.232Z,5.17
2019-06-07T07:05:54.586Z,8.43
2019-06-07T07:06:27.075Z,3.85
2019-06-07T07:07:00.263Z,8.55
2019-06-07T07:07:33.810Z,6.10
2019-06-07T07:08:06.524Z,5.92
2019-06-07T07:08:40.910Z,6.35
2019-06-07T07:09:13.588Z,10.58
2019-06-07T07:09:51.539Z,9.18
2019-06-07T07:10:36.483Z,6.58
2019-06-07T07:11:09.512Z,6.62
2019-06-07T07:11:55.193Z,5.50
2019-06-07T07:12:16.769Z,5.87
2019-06-07T07:12:51.216Z,6.67
2019-06-07T07:13:24.203Z,4.05
2019-06-07T07:13:57.333Z,4.60
2019-06-07T07:14:30.076Z,5.45
2019-06-07T07:15:02.986Z,4.45
2019-06-07T07:15:35.961Z,7.83
2019-06-07T07:16:08.896Z,5.15
2019-06-07T07:16:42.186Z,2.87
2019-06-07T07:17:16.293Z,3.85
2019-06-07T07:18:03.547Z,2.42
2019-06-07T07:18:23.697Z,4.45
2019-06-07T07:18:57.129Z,7.25
2019-06-07T07:19:29.839Z,3.95
2019-06-07T07:20:02.687Z,9.03
2019-06-07T07:20:35.659Z,4.58
2019-06-07T07:21:08.739Z,6.95
2019-06-07T07:21:42.058Z,8.83
2019-06-07T07:22:15.152Z,8.23
2019-06-07T07:22:51.496Z,2.75
2019-06-07T07:23:22.694Z,7.50
2019-06-07T07:24:19.802Z,3.35
2019-06-07T07:24:29.973Z,3.62
2019-06-07T07:25:02.593Z,3.50
2019-06-07T07:25:35.223Z,3.52
2019-06-07T07:26:07.857Z,8.20
2019-06-07T07:26:40.487Z,5.95
2019-06-07T07:27:13.131Z,6.70
2019-06-07T07:27:47.273Z,6.42
2019-06-07T07:28:20.175Z,7.22
2019-06-07T07:28:56.828Z,5.20
2019-06-07T07:29:27.613Z,10.53
2019-06-07T07:30:34.928Z,10.53
2019-06-07T07:30:44.816Z,5.00